createdAt,value
2022-08-09T00:00:13.303Z,17.46
2022-08-09T00:02:42.841Z,17.57
2022-08-09T00:06:18.956Z,17.55
2022-08-09T00:08:02.344Z,17.50
2022-08-09T00:10:29.003Z,17.75
2022-08-09T00:12:56.911Z,17.50
2022-08-09T00:15:35.504Z,17.57
2022-08-09T00:18:12.333Z,17.26
2022-08-09T00:20:42.159Z,17.40
2022-08-09T00:23:55.199Z,17.27
2022-08-09T00:26:04.866Z,17.19
2022-08-09T00:28:32.221Z,17.08
2022-08-09T00:31:09.318Z,17.12
2022-08-09T00:33:52.437Z,17.15
2022-08-09T00:36:19.649Z,16.87
2022-08-09T00:38:46.162Z,16.82
2022-08-09T00:44:14.737Z,17.21
2022-08-09T00:44:19.571Z,16.96
2022-08-09T00:46:55.883Z,17.04
2022-08-09T00:49:24.672Z,17.20
2022-08-09T00:51:56.438Z,16.97
2022-08-09T00:54:35.110Z,16.95
2022-08-09T00:57:08.761Z,16.84
2022-08-09T00:59:46.714Z,16.77
2022-08-09T01:02:20.977Z,16.79
2022-08-09T01:04:57.253Z,16.83
2022-08-09T01:08:00.448Z,16.48
2022-08-09T01:10:45.813Z,16.72
2022-08-09T01:13:24.906Z,16.57
2022-08-09T01:15:59.334Z,16.61
2022-08-09T01:18:31.401Z,16.42
2022-08-09T01:21:17.042Z,16.58
2022-08-09T01:24:02.837Z,16.45
2022-08-09T01:26:43.149Z,16.31
2022-08-09T01:29:15.366Z,16.29
2022-08-09T01:32:32.042Z,16.48
2022-08-09T01:34:33.710Z,16.52
2022-08-09T01:37:02.645Z,16.38
2022-08-09T01:39:31.174Z,16.41
2022-08-09T01:42:10.901Z,16.32
2022-08-09T01:44:38.477Z,15.95
2022-08-09T01:47:05.993Z,16.04
2022-08-09T01:49:38.995Z,16.17
2022-08-09T01:52:10.654Z,16.35
2022-08-09T01:54:39.924Z,16.34
2022-08-09T01:57:10.896Z,16.30
2022-08-09T01:59:51.768Z,16.42
2022-08-09T02:02:22.545Z,16.41
2022-08-09T02:04:50.090Z,16.31
2022-08-09T02:08:40.139Z,16.10
2022-08-09T02:10:33.167Z,16.21
2022-08-09T02:13:03.277Z,16.16
2022-08-09T02:15:48.897Z,15.93
2022-08-09T02:18:23.931Z,15.61
2022-08-09T02:21:05.549Z,15.93
2022-08-09T02:23:39.911Z,15.81
2022-08-09T02:26:24.847Z,15.99
2022-08-09T02:28:56.191Z,15.89
2022-08-09T02:31:35.441Z,15.76
2022-08-09T02:34:13.563Z,16.24
2022-08-09T02:36:53.833Z,16.18
2022-08-09T02:39:33.754Z,16.19
2022-08-09T02:42:09.202Z,15.98
2022-08-09T02:44:46.606Z,16.03
2022-08-09T02:47:15.512Z,15.90
2022-08-09T02:50:01.516Z,15.86
2022-08-09T02:52:35.359Z,16.12
2022-08-09T02:55:03.422Z,15.86
2022-08-09T02:58:00.750Z,16.05
2022-08-09T03:00:35.629Z,16.03
2022-08-09T03:03:06.462Z,15.93
2022-08-09T03:05:35.280Z,15.60
2022-08-09T03:08:04.137Z,15.61
2022-08-09T03:10:31.580Z,15.31
2022-08-09T03:12:58.158Z,15.32
2022-08-09T03:15:25.921Z,15.41
2022-08-09T03:18:13.570Z,15.53
2022-08-09T03:20:45.987Z,15.10
2022-08-09T03:23:24.217Z,15.56
2022-08-09T03:25:57.995Z,15.80
2022-08-09T03:28:31.148Z,15.78
2022-08-09T03:30:58.303Z,15.11
2022-08-09T03:33:25.864Z,15.26
2022-08-09T03:36:16.313Z,15.46
2022-08-09T03:38:44.765Z,15.57
2022-08-09T03:41:16.678Z,15.21
2022-08-09T03:44:03.099Z,15.11
2022-08-09T03:46:32.318Z,15.30
2022-08-09T03:49:04.046Z,15.24
2022-08-09T03:51:57.382Z,15.42
2022-08-09T03:54:29.684Z,15.26
2022-08-09T03:56:58.293Z,15.31
2022-08-09T03:59:33.017Z,15.51
2022-08-09T04:02:11.466Z,15.43
2022-08-09T04:04:40.954Z,15.49
2022-08-09T04:07:12.256Z,15.77
2022-08-09T04:09:41.628Z,15.65
2022-08-09T04:12:30.822Z,15.45
2022-08-09T04:15:01.646Z,15.71
2022-08-09T04:17:29.611Z,15.87
2022-08-09T04:19:56.794Z,15.73
2022-08-09T04:22:23.628Z,15.63
2022-08-09T04:24:50.569Z,15.45
2022-08-09T04:27:22.265Z,15.61
2022-08-09T04:29:50.494Z,15.47
2022-08-09T04:32:34.145Z,15.44
2022-08-09T04:35:08.516Z,15.62
2022-08-09T04:37:45.602Z,16.09
2022-08-09T04:40:19.010Z,16.02
2022-08-09T04:42:48.652Z,15.95
2022-08-09T04:45:16.483Z,15.98
2022-08-09T04:48:01.115Z,15.84
2022-08-09T04:50:34.768Z,15.80
2022-08-09T04:53:13.112Z,15.71
2022-08-09T04:55:58.452Z,15.93
2022-08-09T04:58:27.528Z,15.64
2022-08-09T05:00:55.352Z,15.76
2022-08-09T05:03:40.549Z,15.96
2022-08-09T05:06:26.820Z,16.07
2022-08-09T05:09:00.510Z,15.89
2022-08-09T05:11:32.271Z,16.25
2022-08-09T05:14:02.190Z,16.07
2022-08-09T05:16:32.878Z,16.19
2022-08-09T05:19:00.656Z,16.08
2022-08-09T05:21:30.264Z,16.11
2022-08-09T05:24:04.032Z,16.31
2022-08-09T05:26:36.434Z,16.41
2022-08-09T05:29:17.214Z,16.90
2022-08-09T05:31:48.295Z,16.81
2022-08-09T05:34:18.550Z,16.74
2022-08-09T05:36:47.228Z,16.66
2022-08-09T05:39:28.872Z,16.75
2022-08-09T05:42:04.336Z,17.16
2022-08-09T05:44:32.762Z,17.45
2022-08-09T05:47:01.221Z,17.30
2022-08-09T05:50:23.311Z,17.65
2022-08-09T05:52:18.141Z,17.82
2022-08-09T05:54:49.204Z,18.08
2022-08-09T05:57:17.510Z,18.31
2022-08-09T05:59:45.964Z,18.23
2022-08-09T06:02:17.043Z,18.31
2022-08-09T06:04:46.272Z,18.07
2022-08-09T06:07:21.380Z,18.12
2022-08-09T06:10:01.743Z,18.22
2022-08-09T06:12:31.021Z,18.36
2022-08-09T06:15:01.129Z,18.46
2022-08-09T06:17:39.157Z,18.63
2022-08-09T06:20:08.291Z,18.62
2022-08-09T06:22:35.674Z,18.90
2022-08-09T06:25:02.979Z,19.19
2022-08-09T06:27:42.389Z,19.05
2022-08-09T06:30:16.052Z,19.10
2022-08-09T06:33:00.960Z,19.04
2022-08-09T06:35:35.878Z,19.47
2022-08-09T06:38:17.276Z,19.17
2022-08-09T06:40:46.000Z,19.33
2022-08-09T06:43:13.583Z,19.35
2022-08-09T06:46:07.039Z,19.89
2022-08-09T06:48:30.949Z,19.68
2022-08-09T06:50:59.282Z,19.49
2022-08-09T06:53:25.846Z,19.93
2022-08-09T06:55:52.669Z,20.04
2022-08-09T06:58:40.765Z,20.28
2022-08-09T07:01:08.058Z,20.13
2022-08-09T07:03:39.665Z,20.17
2022-08-09T07:06:19.994Z,20.60
2022-08-09T07:08:46.919Z,20.77
2022-08-09T07:11:17.725Z,20.09
2022-08-09T07:14:04.436Z,20.30
2022-08-09T07:16:39.116Z,21.16
2022-08-09T07:19:07.776Z,21.48
2022-08-09T07:21:34.419Z,21.74
2022-08-09T07:24:03.311Z,22.01
2022-08-09T07:26:31.913Z,22.09
2022-08-09T07:29:09.187Z,21.83
2022-08-09T07:31:45.573Z,22.14
2022-08-09T07:34:20.618Z,21.94
2022-08-09T07:36:49.145Z,22.49
2022-08-09T07:39:20.518Z,23.24
2022-08-09T07:42:02.625Z,23.28
2022-08-09T07:44:36.988Z,23.16
2022-08-09T07:47:16.248Z,23.19
2022-08-09T07:49:52.302Z,24.41
2022-08-09T07:52:30.151Z,24.72
2022-08-09T07:54:57.545Z,25.16
2022-08-09T07:57:24.145Z,24.79
2022-08-09T08:00:03.073Z,24.66
2022-08-09T08:02:30.617Z,25.64
2022-08-09T08:04:57.381Z,25.81
2022-08-09T08:08:43.437Z,25.13
2022-08-09T08:10:11.863Z,25.23
2022-08-09T08:12:42.490Z,25.03
2022-08-09T08:15:16.849Z,25.00
2022-08-09T08:17:52.992Z,25.13
2022-08-09T08:20:28.794Z,25.20
2022-08-09T08:22:58.575Z,24.33
2022-08-09T08:25:44.071Z,24.63
2022-08-09T08:28:14.403Z,24.10
2022-08-09T08:30:43.241Z,24.25
2022-08-09T08:33:12.051Z,24.80
2022-08-09T08:35:53.187Z,24.65
2022-08-09T08:38:28.268Z,25.31
2022-08-09T08:40:55.963Z,25.19
2022-08-09T08:43:24.226Z,25.27
2022-08-09T08:46:04.036Z,24.47
2022-08-09T08:48:51.437Z,24.14
2022-08-09T08:51:18.865Z,24.94
2022-08-09T08:54:03.739Z,26.05
2022-08-09T08:56:37.484Z,25.05
2022-08-09T08:59:18.994Z,24.01
2022-08-09T09:01:53.371Z,24.71
2022-08-09T09:04:31.204Z,24.77
2022-08-09T09:07:07.866Z,25.21
2022-08-09T09:09:58.786Z,25.47
2022-08-09T09:12:29.063Z,25.52
2022-08-09T09:14:58.753Z,24.64
2022-08-09T09:17:25.414Z,24.37
2022-08-09T09:20:15.390Z,25.84
2022-08-09T09:22:55.734Z,26.13
2022-08-09T09:26:03.620Z,27.17
2022-08-09T09:28:39.161Z,25.93
2022-08-09T09:31:17.185Z,26.10
2022-08-09T09:33:44.900Z,25.30
2022-08-09T09:36:20.358Z,24.68
2022-08-09T09:38:56.846Z,25.83
2022-08-09T09:41:24.030Z,27.84
2022-08-09T09:44:12.925Z,28.38
2022-08-09T09:46:42.915Z,28.37
2022-08-09T09:49:13.543Z,28.34
2022-08-09T09:51:41.420Z,27.29
2022-08-09T09:54:21.025Z,26.70
2022-08-09T09:56:53.276Z,27.12
2022-08-09T09:59:36.131Z,26.90
2022-08-09T10:02:02.699Z,28.48
2022-08-09T10:04:30.419Z,29.13
2022-08-09T10:06:57.285Z,28.27
2022-08-09T10:09:24.356Z,29.10
2022-08-09T10:12:14.390Z,27.78
2022-08-09T10:14:47.992Z,27.41
2022-08-09T10:17:51.229Z,27.65
2022-08-09T10:20:15.025Z,26.54
2022-08-09T10:22:42.214Z,27.13
2022-08-09T10:25:11.696Z,25.65
2022-08-09T10:27:57.329Z,25.94
2022-08-09T10:34:05.261Z,27.67
2022-08-09T10:36:01.240Z,27.76
2022-08-09T10:38:55.363Z,28.66
2022-08-09T10:41:17.794Z,28.69
2022-08-09T10:43:50.767Z,29.05
2022-08-09T10:46:26.863Z,30.57
2022-08-09T10:48:59.034Z,30.87
2022-08-09T10:51:52.990Z,30.99
2022-08-09T10:54:24.072Z,28.97
2022-08-09T10:57:08.729Z,27.74
2022-08-09T10:59:55.265Z,27.55
2022-08-09T11:03:12.073Z,27.60
2022-08-09T11:05:30.103Z,27.57
2022-08-09T11:07:59.447Z,26.37
2022-08-09T11:10:53.303Z,26.48
2022-08-09T11:13:49.432Z,26.13
2022-08-09T11:16:43.533Z,25.31
2022-08-09T11:19:13.693Z,25.94
2022-08-09T11:21:57.246Z,27.08
2022-08-09T11:25:10.366Z,27.37
2022-08-09T11:28:05.637Z,28.27
2022-08-09T11:30:32.779Z,29.37
2022-08-09T11:33:16.546Z,30.08
2022-08-09T11:35:49.088Z,29.29
2022-08-09T11:38:32.926Z,28.66
2022-08-09T11:41:05.276Z,29.64
2022-08-09T11:43:32.311Z,29.93
2022-08-09T11:46:04.815Z,28.71
2022-08-09T11:48:35.999Z,28.18
2022-08-09T11:51:21.324Z,28.42
2022-08-09T11:54:27.453Z,28.07
2022-08-09T11:58:00.778Z,27.45
2022-08-09T12:00:27.493Z,27.72
2022-08-09T12:02:56.492Z,27.75
2022-08-09T12:05:39.737Z,27.96
2022-08-09T12:08:21.546Z,27.59
2022-08-09T12:10:50.018Z,26.85
2022-08-09T12:14:10.046Z,26.84
2022-08-09T12:16:39.981Z,27.07
2022-08-09T12:19:09.670Z,26.86
2022-08-09T12:21:38.280Z,26.87
2022-08-09T12:24:09.628Z,27.48
2022-08-09T12:26:44.903Z,27.36
2022-08-09T12:29:43.719Z,26.66
2022-08-09T12:32:25.747Z,27.79
2022-08-09T12:35:02.607Z,27.86
2022-08-09T12:37:49.912Z,27.76
2022-08-09T12:40:18.934Z,27.48
2022-08-09T12:42:46.050Z,27.65
2022-08-09T12:45:34.206Z,26.99
2022-08-09T12:47:59.758Z,26.88
2022-08-09T12:50:27.247Z,26.92
2022-08-09T12:53:09.249Z,27.89
2022-08-09T12:56:12.145Z,27.65
2022-08-09T12:58:28.714Z,26.60
2022-08-09T13:00:56.062Z,26.83
2022-08-09T13:03:53.528Z,27.69
2022-08-09T13:06:34.739Z,27.53
2022-08-09T13:09:30.517Z,29.05
2022-08-09T13:12:02.873Z,30.34
2022-08-09T13:14:41.899Z,29.76
2022-08-09T13:17:43.672Z,29.81
2022-08-09T13:20:13.962Z,28.97
2022-08-09T13:23:01.265Z,30.77
2022-08-09T13:25:52.881Z,28.75
2022-08-09T13:28:33.827Z,30.24
2022-08-09T13:32:13.912Z,28.15
2022-08-09T13:33:56.841Z,27.63
2022-08-09T13:36:41.032Z,27.24
2022-08-09T13:41:55.968Z,27.69
2022-08-09T13:42:02.515Z,26.68
2022-08-09T13:44:30.230Z,26.89
2022-08-09T13:47:29.404Z,26.03
2022-08-09T13:49:58.203Z,26.93
2022-08-09T13:52:29.251Z,28.05
2022-08-09T13:54:58.894Z,28.36
2022-08-09T13:57:37.388Z,29.87
2022-08-09T14:00:07.428Z,28.57
2022-08-09T14:02:42.022Z,28.91
2022-08-09T14:05:13.494Z,28.34
2022-08-09T14:08:01.417Z,27.99
2022-08-09T14:10:37.689Z,28.52
2022-08-09T14:13:27.948Z,28.51
2022-08-09T14:16:07.024Z,27.92
2022-08-09T14:18:37.254Z,27.51
2022-08-09T14:21:04.103Z,27.40
2022-08-09T14:23:40.127Z,27.32
2022-08-09T14:26:20.442Z,27.80
2022-08-09T14:28:47.574Z,27.55
2022-08-09T14:31:14.197Z,27.57
2022-08-09T14:33:40.672Z,27.46
2022-08-09T14:36:20.875Z,26.71
2022-08-09T14:38:52.614Z,27.02
2022-08-09T14:41:34.617Z,27.34
2022-08-09T14:44:06.468Z,27.06
2022-08-09T14:46:54.552Z,27.49
2022-08-09T14:49:23.696Z,27.04
2022-08-09T14:51:50.843Z,26.62
2022-08-09T14:54:27.687Z,26.30
2022-08-09T14:56:58.651Z,26.27
2022-08-09T14:59:27.385Z,26.76
2022-08-09T15:01:55.498Z,27.08
2022-08-09T15:04:23.649Z,26.94
2022-08-09T15:06:51.433Z,25.88
2022-08-09T15:09:30.462Z,25.65
2022-08-09T15:12:07.814Z,26.11
2022-08-09T15:14:35.058Z,25.80
2022-08-09T15:17:07.764Z,25.93
2022-08-09T15:19:36.625Z,25.85
2022-08-09T15:22:03.783Z,24.92
2022-08-09T15:24:32.020Z,25.27
2022-08-09T15:26:59.652Z,25.38
2022-08-09T15:30:57.390Z,25.56
2022-08-09T15:32:29.671Z,25.72
2022-08-09T15:35:01.422Z,25.17
2022-08-09T15:37:37.833Z,25.32
2022-08-09T15:40:22.546Z,25.34
2022-08-09T15:42:52.715Z,25.36
2022-08-09T15:45:29.440Z,24.66
2022-08-09T15:48:05.557Z,24.96
2022-08-09T15:50:43.865Z,25.66
2022-08-09T15:53:17.915Z,24.80
2022-08-09T15:56:21.578Z,25.33
2022-08-09T15:58:46.496Z,25.62
2022-08-09T16:01:13.420Z,25.15
2022-08-09T16:03:41.502Z,25.41
2022-08-09T16:06:32.401Z,25.28
2022-08-09T16:08:56.187Z,25.06
2022-08-09T16:11:22.736Z,25.06
2022-08-09T16:14:04.922Z,25.51
2022-08-09T16:16:34.683Z,25.36
2022-08-09T16:19:04.515Z,25.37
2022-08-09T16:21:31.837Z,25.36
2022-08-09T16:24:02.336Z,24.90
2022-08-09T16:26:35.254Z,24.98
2022-08-09T16:29:14.020Z,25.25
2022-08-09T16:32:18.802Z,25.10
2022-08-09T16:34:55.063Z,24.70
2022-08-09T16:37:18.686Z,24.42
2022-08-09T16:39:48.154Z,24.59
2022-08-09T16:42:29.058Z,25.21
2022-08-09T16:44:55.977Z,25.08
2022-08-09T16:48:43.399Z,24.78
2022-08-09T16:50:31.101Z,24.86
2022-08-09T16:52:56.154Z,24.71
2022-08-09T16:55:23.315Z,24.80
2022-08-09T16:58:10.268Z,24.25
2022-08-09T17:00:36.735Z,24.15
2022-08-09T17:03:05.253Z,24.07
2022-08-09T17:06:07.578Z,24.59
2022-08-09T17:08:44.100Z,24.72
2022-08-09T17:11:06.769Z,24.71
2022-08-09T17:13:34.310Z,24.79
2022-08-09T17:16:02.292Z,23.96
2022-08-09T17:18:30.037Z,24.28
2022-08-09T17:20:56.920Z,24.59
2022-08-09T17:23:23.866Z,24.26
2022-08-09T17:26:10.448Z,24.97
2022-08-09T17:28:39.054Z,24.96
2022-08-09T17:31:05.866Z,24.34
2022-08-09T17:33:35.982Z,24.54
2022-08-09T17:36:04.854Z,24.01
2022-08-09T17:38:37.105Z,23.97
2022-08-09T17:41:05.745Z,24.45
2022-08-09T17:43:37.014Z,24.13
2022-08-09T17:46:08.819Z,24.54
2022-08-09T17:48:51.776Z,24.16
2022-08-09T17:51:19.991Z,24.34
2022-08-09T17:53:51.918Z,23.54
2022-08-09T17:56:32.418Z,23.74
2022-08-09T17:59:09.048Z,23.82
2022-08-09T18:01:40.790Z,23.80
2022-08-09T18:04:22.672Z,24.44
2022-08-09T18:06:54.300Z,23.72
2022-08-09T18:09:23.152Z,23.58
2022-08-09T18:12:14.637Z,23.67
2022-08-09T18:14:38.029Z,23.49
2022-08-09T18:17:27.325Z,23.73
2022-08-09T18:20:56.016Z,23.97
2022-08-09T18:22:54.644Z,24.10
2022-08-09T18:25:21.161Z,23.88
2022-08-09T18:28:21.556Z,23.61
2022-08-09T18:30:54.703Z,23.74
2022-08-09T18:33:23.016Z,23.45
2022-08-09T18:36:00.185Z,23.65
2022-08-09T18:38:27.413Z,23.64
2022-08-09T18:40:55.388Z,23.34
2022-08-09T18:43:23.276Z,23.20
2022-08-09T18:46:47.136Z,23.48
2022-08-09T18:48:36.606Z,23.47
2022-08-09T18:51:03.191Z,23.14
2022-08-09T18:53:56.497Z,23.23
2022-08-09T18:56:20.093Z,22.99
2022-08-09T18:58:55.247Z,23.66
2022-08-09T19:01:22.450Z,23.40
2022-08-09T19:03:54.643Z,23.13
2022-08-09T19:06:32.924Z,23.31
2022-08-09T19:09:02.480Z,23.19
2022-08-09T19:11:37.380Z,23.04
2022-08-09T19:14:06.614Z,23.05
2022-08-09T19:16:36.524Z,22.93
2022-08-09T19:19:26.126Z,22.87
2022-08-09T19:22:04.800Z,22.81
2022-08-09T19:25:07.508Z,22.75
2022-08-09T19:27:21.007Z,22.62
2022-08-09T19:30:21.478Z,22.63
2022-08-09T19:32:35.912Z,22.44
2022-08-09T19:35:04.352Z,22.21
2022-08-09T19:37:41.118Z,22.27
2022-08-09T19:40:19.383Z,22.20
2022-08-09T19:42:49.497Z,22.18
2022-08-09T19:45:16.525Z,22.22
2022-08-09T19:47:44.415Z,22.03
2022-08-09T19:50:50.293Z,22.00
2022-08-09T19:52:59.437Z,22.04
2022-08-09T19:55:39.120Z,22.06
2022-08-09T19:58:16.081Z,21.93
2022-08-09T20:00:45.554Z,21.75
2022-08-09T20:04:10.799Z,21.60
2022-08-09T20:05:59.386Z,21.77
2022-08-09T20:08:34.847Z,21.30
2022-08-09T20:11:02.726Z,21.49
2022-08-09T20:13:32.259Z,21.56
2022-08-09T20:16:35.051Z,21.49
2022-08-09T20:19:04.000Z,21.45
2022-08-09T20:21:54.979Z,21.14
2022-08-09T20:24:29.853Z,21.10
2022-08-09T20:27:01.006Z,21.08
2022-08-09T20:29:32.478Z,21.07
2022-08-09T20:32:31.258Z,20.98
2022-08-09T20:34:50.786Z,20.99
2022-08-09T20:37:21.586Z,20.96
2022-08-09T20:40:15.716Z,21.00
2022-08-09T20:42:37.721Z,20.73
2022-08-09T20:45:59.103Z,20.77
2022-08-09T20:47:52.276Z,20.88
2022-08-09T20:50:46.658Z,20.73
2022-08-09T20:53:05.614Z,20.61
2022-08-09T20:56:01.967Z,20.54
2022-08-09T20:58:32.288Z,20.50
2022-08-09T21:01:14.166Z,20.50
2022-08-09T21:05:48.298Z,20.40
2022-08-09T21:06:36.006Z,20.18
2022-08-09T21:09:03.354Z,20.19
2022-08-09T21:14:17.058Z,20.07
2022-08-09T21:16:45.945Z,19.78
2022-08-09T21:20:17.809Z,20.04
2022-08-09T21:22:00.023Z,19.91
2022-08-09T21:24:28.821Z,19.71
2022-08-09T21:26:59.937Z,19.65
2022-08-09T21:29:49.614Z,19.45
2022-08-09T21:32:18.774Z,19.91
2022-08-09T21:34:49.259Z,19.78
2022-08-09T21:37:18.123Z,19.35
2022-08-09T21:39:45.208Z,19.53
2022-08-09T21:42:17.220Z,19.32
2022-08-09T21:44:44.640Z,19.41
2022-08-09T21:47:17.561Z,19.46
2022-08-09T21:49:45.394Z,19.41
2022-08-09T21:52:15.010Z,19.24
2022-08-09T21:55:03.302Z,19.30
2022-08-09T21:57:39.385Z,19.20
2022-08-09T22:00:26.821Z,19.22
2022-08-09T22:03:01.166Z,18.71
2022-08-09T22:05:36.931Z,18.95
2022-08-09T22:08:13.745Z,19.05
2022-08-09T22:11:50.505Z,18.88
2022-08-09T22:13:34.497Z,18.92
2022-08-09T22:16:07.834Z,19.03
2022-08-09T22:18:35.191Z,18.91
2022-08-09T22:21:03.796Z,18.97
2022-08-09T22:23:58.524Z,18.72
2022-08-09T22:26:34.372Z,18.72
2022-08-09T22:29:07.205Z,18.62
2022-08-09T22:31:44.569Z,18.77
2022-08-09T22:34:25.717Z,18.60
2022-08-09T22:36:53.211Z,18.56
2022-08-09T22:39:47.275Z,18.63
2022-08-09T22:42:16.233Z,18.52
2022-08-09T22:44:48.522Z,18.47
2022-08-09T22:48:12.784Z,18.47
2022-08-09T22:50:13.493Z,18.25
2022-08-09T22:52:40.031Z,18.03
2022-08-09T22:55:09.032Z,18.17
2022-08-09T22:58:00.204Z,18.22
2022-08-09T23:00:29.629Z,17.98
2022-08-09T23:02:56.256Z,18.25
2022-08-09T23:05:22.818Z,18.28
2022-08-09T23:08:22.286Z,18.10
2022-08-09T23:10:55.879Z,18.04
2022-08-09T23:13:22.371Z,18.23
2022-08-09T23:16:02.823Z,18.05
2022-08-09T23:18:30.737Z,18.04
2022-08-09T23:20:57.206Z,17.89
2022-08-09T23:23:23.723Z,18.14
2022-08-09T23:25:50.307Z,18.16
2022-08-09T23:28:16.794Z,18.06
2022-08-09T23:30:51.546Z,17.98
2022-08-09T23:33:22.286Z,17.84
2022-08-09T23:36:06.391Z,17.91
2022-08-09T23:38:33.861Z,17.55
2022-08-09T23:41:01.365Z,17.77
2022-08-09T23:43:27.856Z,17.75
2022-08-09T23:45:54.347Z,17.93
2022-08-09T23:48:20.913Z,17.90
2022-08-09T23:50:47.421Z,17.78
2022-08-09T23:53:13.892Z,17.66
2022-08-09T23:55:41.459Z,17.72
2022-08-09T23:58:25.816Z,17.82
